Terminal Aerodrome Forecast
Issued by NWS

Home | Current Version | Previous Version | Text Only | Print | Product List | Glossary On
Versions: 1 2 3 4 5 6 7 8 9 10 11 12 13 14 15 16 17 18 19 20 21
000
FTAK31 PANC 250057 AAB
TAFAAQ
TAF AMD
PAAQ 250057Z 2501/2524 VRB03KT 3SM -SN OVC020
      TEMPO 2501/2503 1 1/2SM -SN BR BKN005
     FM250300 25005KT P6SM VCFG FEW005 OVC025
     FM250600 VRB03KT P6SM BKN012 BKN025
     FM251900 VRB03KT P6SM SCT025 BKN045=

USA.gov is the U.S. government's official web portal to all federal, state and local government web resources and services.